Terminal Aerodrome Forecast
Issued by NWS

Home | Current Version | Previous Version | Text Only | Print | Product List | Glossary On
Versions: 1 2 3 4 5 6 7 8 9 10 11 12 13 14 15 16 17 18 19
239
FTUS41 KBGM 160538
TAFELM
TAF
KELM 160538Z 1606/1706 25008KT P6SM OVC050
     FM161400 28010KT 5SM -SHSN BKN025 OVC040
      TEMPO 1617/1621 2SM -SHSN BKN015 OVC030
     FM170000 VRB05KT P6SM SCT025 BKN040=

USA.gov is the U.S. government's official web portal to all federal, state and local government web resources and services.